Time;durP1;ratioP1;P1;durP2;ratioP2;P2;SDS_P1;SDS_P2;PMS_P1;PMS_P2;Temp;Humidity;BMP_temperature;BMP_pressure;BME280_temperature;BME280_humidity;BME280_pressure;Samples;Min_cycle;Max_cycle;Signal;HPM_P1;HPM_P2
2022/06/29 00:02:01;;;;;;;8.90;7.03;;;;;;;16.47;100.00;96556.88;5000593;28;20049;-70
2022/06/29 00:04:26;;;;;;;10.18;8.32;;;;;;;16.04;100.00;96560.78;4994745;28;20042;-69
2022/06/29 00:06:52;;;;;;;10.65;8.98;;;;;;;15.86;100.00;96558.16;4999608;28;20503;-70
2022/06/29 00:09:17;;;;;;;15.70;10.05;;;;;;;15.82;100.00;96552.66;4995299;28;20140;-70
2022/06/29 00:11:43;;;;;;;9.90;8.95;;;;;;;16.03;100.00;96565.53;5000180;28;20806;-70
2022/06/29 00:14:08;;;;;;;11.18;8.30;;;;;;;16.20;100.00;96571.31;4994814;28;20041;-70
2022/06/29 00:16:33;;;;;;;11.93;8.70;;;;;;;16.40;100.00;96569.59;4999344;28;20050;-70
2022/06/29 00:18:59;;;;;;;9.75;8.07;;;;;;;16.38;100.00;96562.88;4999553;28;20487;-70
2022/06/29 00:21:24;;;;;;;10.50;7.00;;;;;;;16.40;100.00;96563.25;4993935;28;20159;-70
2022/06/29 00:23:49;;;;;;;16.90;8.80;;;;;;;16.56;100.00;96557.97;5001144;28;20046;-71
2022/06/29 00:26:15;;;;;;;13.82;6.85;;;;;;;16.71;100.00;96557.81;5000603;28;20037;-69
2022/06/29 00:28:40;;;;;;;10.05;7.05;;;;;;;16.76;100.00;96555.44;4999991;28;20411;-68
2022/06/29 00:31:06;;;;;;;8.90;7.03;;;;;;;16.52;100.00;96550.91;4990329;28;20403;-67
2022/06/29 00:33:31;;;;;;;11.82;7.72;;;;;;;16.35;100.00;96558.97;5001215;28;20042;-68
2022/06/29 00:35:56;;;;;;;8.50;7.25;;;;;;;16.36;100.00;96557.75;5002787;28;20049;-68
2022/06/29 00:38:22;;;;;;;10.82;7.05;;;;;;;16.42;100.00;96563.63;5017498;28;20480;-68
2022/06/29 00:40:47;;;;;;;10.07;7.65;;;;;;;16.38;100.00;96560.13;5007227;28;20056;-67
2022/06/29 00:43:13;;;;;;;12.55;7.80;;;;;;;16.19;100.00;96553.19;4998271;28;20123;-68
2022/06/29 00:45:38;;;;;;;10.48;8.23;;;;;;;15.84;100.00;96569.59;5002473;28;20057;-68
2022/06/29 00:48:04;;;;;;;11.90;9.02;;;;;;;15.67;100.00;96567.72;4999990;28;20125;-68
2022/06/29 00:50:32;;;;;;;15.57;9.80;;;;;;;15.65;100.00;96565.34;5001701;28;20042;-68
2022/06/29 00:53:03;;;;;;;12.60;9.23;;;;;;;15.75;100.00;96565.72;5004351;28;20884;-68
2022/06/29 00:55:30;;;;;;;10.50;8.75;;;;;;;15.90;100.00;96558.94;5004283;28;20050;-68
2022/06/29 00:58:03;;;;;;;11.07;8.80;;;;;;;16.01;100.00;96558.84;5002597;28;20368;-68
2022/06/29 01:00:28;;;;;;;13.10;8.73;;;;;;;15.94;100.00;96559.69;4999375;28;20120;-68
2022/06/29 01:02:55;;;;;;;10.38;9.02;;;;;;;15.93;100.00;96565.59;5002575;28;20454;-68
2022/06/29 01:05:20;;;;;;;13.15;9.13;;;;;;;15.64;100.00;96563.00;4997686;28;20057;-69
2022/06/29 01:07:46;;;;;;;10.48;9.38;;;;;;;15.50;100.00;96555.56;5002428;28;20120;-68
2022/06/29 01:10:11;;;;;;;15.05;10.98;;;;;;;15.27;100.00;96547.81;4997573;28;20108;-68
2022/06/29 01:12:37;;;;;;;15.27;12.02;;;;;;;15.10;100.00;96543.94;5002981;28;20041;-70
2022/06/29 01:15:03;;;;;;;16.30;12.75;;;;;;;15.00;100.00;96536.47;5000047;28;20046;-70
2022/06/29 01:17:28;;;;;;;16.15;13.05;;;;;;;15.00;100.00;96540.03;4999636;28;20054;-70
2022/06/29 01:19:54;;;;;;;15.35;12.98;;;;;;;15.07;100.00;96544.72;5002255;28;20052;-68
2022/06/29 01:22:22;;;;;;;18.27;12.57;;;;;;;15.14;100.00;96536.41;4996843;28;20045;-68
2022/06/29 01:24:49;;;;;;;17.80;11.90;;;;;;;15.18;100.00;96534.44;5002558;28;20495;-68
2022/06/29 01:27:16;;;;;;;15.25;12.45;;;;;;;15.23;100.00;96528.53;4995390;28;20506;-68
2022/06/29 01:29:43;;;;;;;11.32;9.75;;;;;;;15.36;100.00;96533.56;5002352;28;20042;-68
2022/06/29 01:32:09;;;;;;;13.63;10.07;;;;;;;15.49;100.00;96521.66;4997025;28;20045;-67
2022/06/29 01:34:35;;;;;;;11.82;9.25;;;;;;;15.61;100.00;96525.13;5002166;28;20459;-70
2022/06/29 01:37:02;;;;;;;10.43;8.95;;;;;;;15.68;100.00;96533.38;5002183;28;20133;-69
2022/06/29 01:39:29;;;;;;;9.07;8.18;;;;;;;15.73;100.00;96532.97;4999668;28;20049;-71
2022/06/29 01:41:54;;;;;;;9.95;8.40;;;;;;;15.77;100.00;96536.53;5002514;28;20622;-67
2022/06/29 01:44:20;;;;;;;10.48;8.02;;;;;;;15.73;100.00;96530.19;4998313;28;20034;-68
2022/06/29 01:46:45;;;;;;;8.85;7.65;;;;;;;15.78;100.00;96523.50;5018600;28;20077;-67
2022/06/29 01:49:11;;;;;;;12.25;8.10;;;;;;;15.85;100.00;96540.78;4992884;28;20101;-70
2022/06/29 01:51:36;;;;;;;10.55;7.38;;;;;;;15.93;100.00;96535.22;4994516;28;20034;-69
2022/06/29 01:54:02;;;;;;;12.65;7.07;;;;;;;15.90;100.00;96531.31;5001354;28;20038;-68
2022/06/29 01:56:27;;;;;;;10.02;7.78;;;;;;;15.90;100.00;96519.47;4994244;28;20072;-68
2022/06/29 01:58:53;;;;;;;10.50;7.25;;;;;;;15.83;100.00;96515.56;4997054;28;20041;-68
2022/06/29 02:01:18;;;;;;;9.30;7.18;;;;;;;15.77;100.00;96519.97;4988474;28;20387;-70
2022/06/29 02:03:44;;;;;;;7.78;6.68;;;;;;;15.82;100.00;96516.75;5001897;28;20040;-70
2022/06/29 02:06:10;;;;;;;8.93;6.72;;;;;;;15.96;100.00;96510.34;4997165;28;20407;-70
2022/06/29 02:08:36;;;;;;;8.85;6.53;;;;;;;15.71;100.00;96510.50;5016959;28;20058;-69
2022/06/29 02:11:02;;;;;;;13.25;7.53;;;;;;;15.48;100.00;96514.59;5016879;28;20042;-69
2022/06/29 02:13:28;;;;;;;9.98;7.72;;;;;;;15.21;100.00;96511.56;4999877;28;20121;-69
2022/06/29 02:15:54;;;;;;;13.15;9.63;;;;;;;14.85;100.00;96506.19;5002465;28;20422;-69
2022/06/29 02:18:19;;;;;;;13.52;9.70;;;;;;;14.79;100.00;96509.78;4997071;28;20041;-70
2022/06/29 02:20:45;;;;;;;13.18;10.15;;;;;;;14.79;100.00;96498.75;5000456;28;20135;-69
2022/06/29 02:23:10;;;;;;;13.25;10.80;;;;;;;14.88;100.00;96502.66;4999439;28;20045;-69
2022/06/29 02:25:36;;;;;;;11.85;10.57;;;;;;;14.97;100.00;96512.47;4997378;28;20045;-69
2022/06/29 02:28:02;;;;;;;11.82;9.43;;;;;;;15.09;100.00;96506.53;5009094;28;20038;-68
2022/06/29 02:35:56;;;;;;;11.30;8.52;;;;;;;15.53;100.00;96515.34;5000198;28;20065;-68
2022/06/29 02:38:21;;;;;;;9.82;7.28;;;;;;;15.57;100.00;96513.34;5013181;28;20049;-69
2022/06/29 02:40:47;;;;;;;10.05;7.78;;;;;;;15.60;100.00;96501.50;5012660;28;20038;-68
2022/06/29 02:43:12;;;;;;;11.80;7.60;;;;;;;15.68;100.00;96508.53;4997224;28;20042;-70
2022/06/29 02:45:37;;;;;;;11.70;7.50;;;;;;;15.54;100.00;96509.44;5001823;28;20053;-68
2022/06/29 02:48:03;;;;;;;10.60;7.53;;;;;;;15.45;100.00;96503.56;4998785;28;20116;-68
2022/06/29 02:50:29;;;;;;;11.82;7.28;;;;;;;15.55;100.00;96499.16;4995556;28;20046;-68
2022/06/29 02:52:54;;;;;;;9.68;6.35;;;;;;;15.65;100.00;96507.38;4995786;28;20104;-69
2022/06/29 02:55:20;;;;;;;10.77;7.50;;;;;;;15.69;100.00;96510.13;4994275;28;20099;-68
2022/06/29 02:57:46;;;;;;;17.10;8.00;;;;;;;15.67;100.00;96505.00;4988384;28;20073;-69
2022/06/29 03:00:13;;;;;;;7.88;6.78;;;;;;;15.72;100.00;96509.31;4997315;28;20077;-68
2022/06/29 03:02:38;;;;;;;8.00;6.97;;;;;;;15.79;100.00;96506.53;5011400;28;20475;-68
2022/06/29 03:05:04;;;;;;;8.70;6.57;;;;;;;15.88;100.00;96506.03;4995884;28;20052;-68
2022/06/29 03:07:30;;;;;;;16.13;7.05;;;;;;;15.96;100.00;96504.03;4997907;28;20145;-68
2022/06/29 03:09:55;;;;;;;8.40;5.80;;;;;;;16.00;100.00;96502.81;4998462;28;20037;-67
2022/06/29 03:12:20;;;;;;;11.15;6.13;;;;;;;16.07;100.00;96506.72;4988509;28;20684;-68
2022/06/29 03:14:46;;;;;;;9.52;6.75;;;;;;;16.06;100.00;96497.63;5000767;28;20476;-68
2022/06/29 03:17:11;;;;;;;9.82;6.40;;;;;;;16.00;100.00;96500.03;4994880;28;20057;-68
2022/06/29 03:19:36;;;;;;;10.85;5.95;;;;;;;15.98;100.00;96494.13;4998384;28;20034;-68
2022/06/29 03:22:02;;;;;;;10.88;5.75;;;;;;;15.95;100.00;96500.47;4996367;28;20136;-70
2022/06/29 03:24:28;;;;;;;14.57;6.15;;;;;;;15.93;100.00;96493.78;4995349;28;20527;-68
2022/06/29 03:26:53;;;;;;;12.88;6.30;;;;;;;15.89;100.00;96499.34;4998958;28;20127;-68
2022/06/29 03:29:19;;;;;;;13.57;7.28;;;;;;;15.94;100.00;96503.66;4993336;28;20042;-69
2022/06/29 03:31:44;;;;;;;12.23;6.55;;;;;;;15.91;100.00;96501.69;4992959;28;20466;-69
2022/06/29 03:34:09;;;;;;;8.88;6.88;;;;;;;15.82;100.00;96510.44;4995202;28;20503;-69
2022/06/29 03:36:35;;;;;;;17.60;7.80;;;;;;;15.57;100.00;96503.09;4988699;28;20049;-69
2022/06/29 03:39:00;;;;;;;9.48;6.93;;;;;;;15.62;100.00;96501.88;5008038;28;20086;-69
2022/06/29 03:41:25;;;;;;;14.80;8.00;;;;;;;15.61;100.00;96503.88;4998122;28;20045;-69
2022/06/29 03:43:51;;;;;;;10.93;8.13;;;;;;;15.67;100.00;96507.75;5007060;28;20107;-69
2022/06/29 03:46:16;;;;;;;11.68;7.35;;;;;;;15.77;100.00;96505.34;4992896;28;20042;-69
2022/06/29 03:48:41;;;;;;;13.98;7.90;;;;;;;15.70;100.00;96500.66;4999622;28;20034;-69
2022/06/29 03:51:07;;;;;;;8.63;7.72;;;;;;;15.54;100.00;96495.63;4991865;28;20094;-69
2022/06/29 03:53:32;;;;;;;16.80;9.02;;;;;;;15.56;100.00;96507.03;5000205;28;20037;-70
2022/06/29 03:55:58;;;;;;;10.32;7.28;;;;;;;15.63;100.00;96501.47;5000240;28;20049;-69
2022/06/29 03:58:23;;;;;;;11.68;7.55;;;;;;;15.77;100.00;96497.88;4996089;28;20648;-68
2022/06/29 04:00:48;;;;;;;15.15;7.22;;;;;;;15.92;100.00;96501.31;4989911;28;20057;-69
2022/06/29 04:03:14;;;;;;;12.45;7.63;;;;;;;15.79;100.00;96498.25;4995414;28;20095;-69
2022/06/29 04:05:39;;;;;;;15.45;9.80;;;;;;;15.42;100.00;96496.09;4985134;28;20048;-69
2022/06/29 04:08:05;;;;;;;18.27;9.90;;;;;;;15.23;100.00;96497.38;4996205;28;20057;-70
2022/06/29 04:10:30;;;;;;;18.23;9.70;;;;;;;15.22;100.00;96495.81;5003297;28;20061;-70
2022/06/29 04:12:56;;;;;;;17.88;9.02;;;;;;;15.41;100.00;96494.50;5005069;28;20685;-69
2022/06/29 04:15:23;;;;;;;12.30;8.75;;;;;;;15.62;100.00;96505.41;4998451;28;20549;-70
2022/06/29 04:17:48;;;;;;;11.18;8.10;;;;;;;15.76;100.00;96504.56;5003773;28;20046;-70
2022/06/29 04:21:05;;;;;;;12.57;7.47;;;;;;;15.91;100.00;96496.19;4997491;28;20470;-69
2022/06/29 04:23:01;;;;;;;16.42;8.32;;;;;;;15.87;100.00;96496.22;5003621;28;20068;-68
2022/06/29 04:25:26;;;;;;;11.65;8.82;;;;;;;15.55;100.00;96507.44;4998469;28;20042;-68
2022/06/29 04:27:52;;;;;;;15.88;9.40;;;;;;;15.41;100.00;96505.56;5003595;28;20045;-67
2022/06/29 04:30:17;;;;;;;15.10;9.65;;;;;;;15.32;100.00;96510.72;4997165;28;20049;-68
2022/06/29 04:32:42;;;;;;;19.02;10.35;;;;;;;15.16;100.00;96512.00;5004276;28;20044;-69
2022/06/29 04:35:08;;;;;;;16.50;10.80;;;;;;;15.13;100.00;96518.31;4995040;28;20050;-69
2022/06/29 04:37:33;;;;;;;14.82;11.90;;;;;;;15.06;100.00;96516.38;4996641;28;20057;-69
2022/06/29 04:40:03;;;;;;;16.77;12.13;;;;;;;15.13;100.00;96515.56;4995854;28;20042;-68
2022/06/29 04:42:28;;;;;;;16.97;12.10;;;;;;;15.18;100.00;96514.34;4999437;28;20042;-69
2022/06/29 04:44:54;;;;;;;18.17;11.65;;;;;;;15.33;100.00;96515.06;5000948;28;20053;-68
2022/06/29 04:47:20;;;;;;;18.23;12.15;;;;;;;15.47;100.00;96510.25;4997125;28;20132;-68
2022/06/29 04:49:45;;;;;;;14.27;10.05;;;;;;;15.70;100.00;96513.66;4995460;28;20064;-68
2022/06/29 04:52:12;;;;;;;14.45;9.82;;;;;;;15.87;100.00;96515.53;4998952;28;20104;-68
2022/06/29 04:54:37;;;;;;;13.98;9.63;;;;;;;16.05;100.00;96509.88;5003381;28;20045;-68
2022/06/29 04:57:03;;;;;;;13.05;9.02;;;;;;;16.22;100.00;96516.44;5001790;28;20048;-68
2022/06/29 04:59:29;;;;;;;14.98;9.70;;;;;;;16.25;100.00;96516.41;4998964;28;20049;-68
2022/06/29 05:01:54;;;;;;;10.57;9.10;;;;;;;16.33;100.00;96514.38;4999863;28;20037;-68
2022/06/29 05:04:20;;;;;;;19.08;8.73;;;;;;;16.47;100.00;96516.19;4988638;28;20109;-68
2022/06/29 05:06:45;;;;;;;17.50;8.98;;;;;;;16.52;100.00;96512.22;4998784;28;20567;-68
2022/06/29 05:09:10;;;;;;;13.93;8.90;;;;;;;16.55;100.00;96516.94;4986326;28;20125;-69
2022/06/29 05:11:36;;;;;;;13.68;7.68;;;;;;;16.70;100.00;96509.25;4993454;28;20125;-70
2022/06/29 05:14:02;;;;;;;9.98;7.80;;;;;;;16.82;100.00;96523.34;4985467;28;20667;-71
2022/06/29 05:16:27;;;;;;;13.00;8.05;;;;;;;16.84;100.00;96514.66;4998273;28;20054;-75
2022/06/29 05:18:52;;;;;;;12.32;8.90;;;;;;;16.81;100.00;96512.69;5002627;28;20038;-70
2022/06/29 05:21:19;;;;;;;18.75;8.05;;;;;;;16.89;100.00;96510.66;4998997;28;20119;-69
2022/06/29 05:23:45;;;;;;;15.80;8.50;;;;;;;16.99;100.00;96501.44;5002471;28;20044;-67
2022/06/29 05:26:11;;;;;;;11.65;8.25;;;;;;;17.17;100.00;96506.75;4998015;28;20050;-70
2022/06/29 05:28:37;;;;;;;10.60;6.97;;;;;;;17.38;100.00;96509.25;5002771;28;20121;-71
2022/06/29 05:31:03;;;;;;;12.13;6.63;;;;;;;17.55;100.00;96506.66;4994197;28;20053;-70
2022/06/29 05:33:36;;;;;;;10.88;6.55;;;;;;;17.64;100.00;96506.91;5001197;28;20054;-68
2022/06/29 05:36:03;;;;;;;9.57;6.50;;;;;;;17.77;100.00;96507.91;4994953;28;20038;-70
2022/06/29 05:38:31;;;;;;;14.30;7.00;;;;;;;17.90;100.00;96510.13;4997877;28;20774;-67
2022/06/29 05:40:56;;;;;;;14.50;7.25;;;;;;;17.93;100.00;96507.31;4985484;28;20152;-70
2022/06/29 05:43:21;;;;;;;10.38;7.30;;;;;;;17.90;100.00;96512.91;4995848;28;20821;-70
2022/06/29 05:45:47;;;;;;;9.23;7.70;;;;;;;17.95;100.00;96510.44;5001549;28;20448;-69
2022/06/29 05:48:13;;;;;;;10.10;6.75;;;;;;;18.07;100.00;96511.81;4994736;28;20427;-69
2022/06/29 05:50:38;;;;;;;9.13;7.35;;;;;;;18.24;100.00;96512.75;4996008;28;20096;-68
2022/06/29 05:53:04;;;;;;;14.38;8.13;;;;;;;18.22;100.00;96511.59;4997363;28;20038;-69
2022/06/29 05:55:29;;;;;;;11.10;7.10;;;;;;;18.24;100.00;96525.78;5000489;28;20087;-68
2022/06/29 05:57:55;;;;;;;12.95;8.30;;;;;;;17.98;100.00;96530.97;5001366;28;20054;-69
2022/06/29 06:00:20;;;;;;;11.25;9.05;;;;;;;17.90;100.00;96540.59;5010067;28;20080;-69
2022/06/29 06:02:46;;;;;;;17.48;8.38;;;;;;;17.95;100.00;96540.91;5003272;28;20113;-69
2022/06/29 06:05:11;;;;;;;11.35;9.50;;;;;;;17.47;100.00;96541.19;5003980;28;20114;-68
2022/06/29 06:07:37;;;;;;;11.82;9.48;;;;;;;17.52;100.00;96544.28;5002265;28;20141;-69
2022/06/29 06:10:03;;;;;;;14.15;10.90;;;;;;;17.25;100.00;96535.13;4998278;28;20046;-69
2022/06/29 06:12:30;;;;;;;15.52;9.70;;;;;;;17.47;100.00;96538.41;4999703;28;20137;-69
2022/06/29 06:15:00;;;;;;;12.57;9.48;;;;;;;17.68;100.00;96548.41;4991456;28;20124;-68
2022/06/29 06:17:28;;;;;;;12.52;9.27;;;;;;;17.96;100.00;96545.25;4988833;28;20133;-69
2022/06/29 06:19:55;;;;;;;13.80;9.48;;;;;;;17.95;100.00;96556.72;4998607;28;20038;-69
2022/06/29 06:22:21;;;;;;;12.63;9.80;;;;;;;17.89;100.00;96548.13;4998111;28;20171;-69
2022/06/29 06:24:47;;;;;;;13.90;9.40;;;;;;;18.09;100.00;96548.19;5003299;28;20042;-69
2022/06/29 06:27:13;;;;;;;13.40;9.70;;;;;;;18.53;100.00;96553.84;4996873;28;20041;-68
2022/06/29 06:29:38;;;;;;;12.50;8.63;;;;;;;19.26;100.00;96551.31;5003212;28;20499;-70
2022/06/29 06:32:04;;;;;;;10.60;7.43;;;;;;;19.81;100.00;96558.09;5000344;28;20058;-69
2022/06/29 06:34:31;;;;;;;8.05;6.93;;;;;;;20.49;100.00;96554.91;4997325;28;20050;-69
2022/06/29 06:36:57;;;;;;;8.00;6.32;;;;;;;21.27;100.00;96554.06;5002373;28;20614;-69
2022/06/29 06:39:22;;;;;;;6.30;5.25;;;;;;;22.12;100.00;96559.09;4996696;28;20500;-69
2022/06/29 06:41:48;;;;;;;12.68;5.95;;;;;;;23.01;100.00;96557.38;4994796;28;20109;-68
2022/06/29 06:44:13;;;;;;;8.98;6.10;;;;;;;22.93;100.00;96561.66;4993717;28;20108;-68
2022/06/29 06:46:38;;;;;;;9.05;5.68;;;;;;;23.46;98.40;96556.19;4992243;28;20042;-69
2022/06/29 06:49:04;;;;;;;8.38;4.97;;;;;;;23.79;95.55;96564.13;4990619;28;20563;-69
2022/06/29 06:51:29;;;;;;;6.38;5.05;;;;;;;24.00;94.19;96567.34;4990898;28;20042;-69
2022/06/29 06:53:55;;;;;;;7.68;5.22;;;;;;;23.95;92.50;96563.16;5002322;28;20046;-69
2022/06/29 06:56:20;;;;;;;9.02;4.78;;;;;;;23.98;93.98;96558.63;4995607;28;20033;-69
2022/06/29 06:58:46;;;;;;;8.77;4.60;;;;;;;24.17;92.73;96565.09;5000684;28;20033;-69
2022/06/29 07:01:11;;;;;;;6.63;5.00;;;;;;;24.14;92.50;96574.41;4993830;28;20518;-68
2022/06/29 07:03:37;;;;;;;5.55;4.18;;;;;;;23.89;94.03;96569.78;4995483;28;20053;-68
2022/06/29 07:06:04;;;;;;;8.77;5.65;;;;;;;23.67;93.58;96562.19;4994316;28;20034;-70
2022/06/29 07:08:31;;;;;;;11.20;5.57;;;;;;;23.52;95.39;96567.53;4996467;28;20144;-70
2022/06/29 07:10:58;;;;;;;7.53;5.03;;;;;;;23.59;95.84;96567.28;5000972;28;20041;-68
2022/06/29 07:13:23;;;;;;;8.40;4.95;;;;;;;23.64;95.68;96569.50;4991298;28;20050;-69
2022/06/29 07:15:49;;;;;;;9.35;5.63;;;;;;;23.34;96.11;96573.03;4994200;28;20149;-70
2022/06/29 07:18:14;;;;;;;8.23;5.35;;;;;;;23.09;97.15;96575.47;4984410;28;20598;-70
2022/06/29 07:20:40;;;;;;;12.38;5.75;;;;;;;23.01;99.86;96579.72;5000576;28;20034;-70
2022/06/29 07:23:05;;;;;;;10.82;5.57;;;;;;;22.86;100.00;96568.25;4995218;28;20060;-67
2022/06/29 07:25:30;;;;;;;12.05;5.70;;;;;;;22.56;100.00;96572.44;4995174;28;20062;-69
2022/06/29 07:27:56;;;;;;;5.38;4.75;;;;;;;22.46;100.00;96568.03;5000734;28;20050;-69
2022/06/29 07:30:21;;;;;;;10.60;5.03;;;;;;;22.88;100.00;96565.78;5001791;28;20137;-67
2022/06/29 07:32:47;;;;;;;9.25;5.68;;;;;;;22.83;100.00;96571.16;5002671;28;20042;-66
2022/06/29 07:35:12;;;;;;;14.68;6.72;;;;;;;22.87;100.00;96567.03;4984722;28;20038;-70
2022/06/29 07:37:38;;;;;;;13.07;6.78;;;;;;;23.10;97.88;96573.44;4991465;28;20065;-67
2022/06/29 07:40:04;;;;;;;7.55;5.95;;;;;;;22.90;99.35;96568.13;4990958;28;20042;-70
2022/06/29 07:42:32;;;;;;;11.07;6.30;;;;;;;22.75;100.00;96569.88;4998160;28;20041;-66
2022/06/29 07:44:58;;;;;;;10.80;6.32;;;;;;;22.53;100.00;96565.78;4995819;28;20034;-66
2022/06/29 07:47:23;;;;;;;9.95;6.15;;;;;;;22.51;100.00;96564.69;4995348;28;20213;-68
2022/06/29 07:49:48;;;;;;;7.97;6.20;;;;;;;22.58;100.00;96567.22;5000988;28;20069;-67
2022/06/29 07:52:14;;;;;;;9.60;6.90;;;;;;;22.67;100.00;96563.72;4986626;28;20038;-67
2022/06/29 07:54:39;;;;;;;13.68;7.75;;;;;;;22.56;100.00;96566.09;5000384;28;20125;-68
2022/06/29 07:57:05;;;;;;;13.93;7.57;;;;;;;22.44;100.00;96557.31;4995921;28;20509;-69
2022/06/29 07:59:30;;;;;;;8.60;6.88;;;;;;;22.67;100.00;96564.53;5000947;28;20042;-66
2022/06/29 08:01:56;;;;;;;12.30;8.15;;;;;;;22.90;100.00;96557.75;5001437;28;20046;-67
2022/06/29 08:04:21;;;;;;;14.52;6.90;;;;;;;23.39;98.20;96558.44;4998479;28;20872;-67
2022/06/29 08:06:46;;;;;;;8.88;6.75;;;;;;;24.05;93.05;96559.13;5001369;28;20132;-67
2022/06/29 08:09:12;;;;;;;12.88;7.30;;;;;;;24.42;90.47;96564.09;4996337;28;20054;-68
2022/06/29 08:11:37;;;;;;;8.73;6.40;;;;;;;24.83;84.61;96558.41;4998237;28;20191;-68
2022/06/29 08:14:03;;;;;;;9.98;6.50;;;;;;;24.84;83.40;96557.19;5000103;28;20125;-71
2022/06/29 08:16:29;;;;;;;12.73;6.13;;;;;;;25.27;82.34;96556.13;4991901;28;20050;-68
2022/06/29 08:18:55;;;;;;;12.02;5.60;;;;;;;24.69;87.80;96552.19;4983929;28;20034;-67
2022/06/29 08:21:20;;;;;;;7.93;5.57;;;;;;;25.56;81.25;96547.19;4994446;28;20096;-67
2022/06/29 08:23:45;;;;;;;9.15;5.20;;;;;;;25.58;81.03;96549.53;4998781;28;20103;-67
2022/06/29 08:26:11;;;;;;;8.25;4.53;;;;;;;26.11;75.68;96553.91;4993455;28;20041;-67
2022/06/29 08:28:36;;;;;;;8.95;4.90;;;;;;;26.18;76.44;96555.59;4995033;28;20450;-68
2022/06/29 08:31:02;;;;;;;7.10;5.70;;;;;;;25.71;75.20;96554.94;4997724;28;20045;-72
2022/06/29 08:33:27;;;;;;;10.95;5.75;;;;;;;25.52;79.69;96540.22;4995777;28;20049;-66
2022/06/29 08:35:53;;;;;;;11.35;6.70;;;;;;;25.59;79.36;96544.69;5004608;28;20041;-67
2022/06/29 08:38:18;;;;;;;7.50;5.88;;;;;;;25.10;81.01;96550.03;4994731;28;20046;-66
2022/06/29 08:40:46;;;;;;;13.52;6.40;;;;;;;25.65;79.40;96543.59;5000047;28;20048;-67
2022/06/29 08:43:14;;;;;;;11.10;7.05;;;;;;;25.61;76.76;96550.63;4993717;28;20046;-66
2022/06/29 08:45:46;;;;;;;8.30;7.43;;;;;;;25.02;80.53;96550.81;4998709;28;20199;-67
2022/06/29 08:48:12;;;;;;;12.98;6.32;;;;;;;26.11;76.50;96542.69;4991159;28;20141;-69
2022/06/29 08:50:40;;;;;;;11.80;6.03;;;;;;;26.68;74.78;96547.53;4999268;28;20042;-66
2022/06/29 08:53:07;;;;;;;7.55;5.80;;;;;;;27.51;68.96;96554.53;4996383;28;20499;-67
2022/06/29 08:55:41;;;;;;;7.03;5.38;;;;;;;28.06;66.92;96553.19;5005135;28;20050;-66
2022/06/29 08:58:07;;;;;;;10.80;5.93;;;;;;;27.88;67.30;96545.72;4997389;28;20589;-66
2022/06/29 09:00:37;;;;;;;9.18;5.60;;;;;;;27.98;65.85;96550.78;5000120;28;20045;-66
2022/06/29 09:03:04;;;;;;;11.40;7.03;;;;;;;27.03;68.74;96535.75;4999341;28;20042;-69
2022/06/29 09:05:31;;;;;;;12.30;6.45;;;;;;;26.37;74.06;96528.22;4999758;28;20050;-68
2022/06/29 09:07:56;;;;;;;7.25;4.38;;;;;;;27.44;69.57;96536.81;5001607;28;20447;-66
2022/06/29 09:10:23;;;;;;;6.82;5.07;;;;;;;28.07;65.71;96538.63;4995966;28;20065;-68
2022/06/29 09:12:52;;;;;;;11.73;6.05;;;;;;;26.90;70.24;96527.56;5002032;28;20050;-66
2022/06/29 09:15:29;;;;;;;6.20;4.30;;;;;;;27.08;68.69;96535.06;4997574;28;20069;-67
2022/06/29 09:17:54;;;;;;;7.25;5.00;;;;;;;26.35;72.28;96530.72;5001968;28;20055;-68
2022/06/29 09:20:20;;;;;;;9.55;5.88;;;;;;;26.51;71.07;96531.06;5000387;28;20140;-68
2022/06/29 09:22:54;;;;;;;10.13;6.15;;;;;;;27.09;69.16;96531.78;5002306;28;20053;-69
2022/06/29 09:25:21;;;;;;;11.98;6.15;;;;;;;26.65;68.78;96535.25;5000024;28;20068;-68
2022/06/29 09:27:47;;;;;;;8.30;5.25;;;;;;;26.33;70.81;96529.16;5001758;28;20509;-67
2022/06/29 09:30:30;;;;;;;10.88;5.50;;;;;;;26.50;69.70;96529.50;5000500;28;20053;-70
2022/06/29 09:33:00;;;;;;;7.90;4.47;;;;;;;26.00;72.99;96517.97;4998472;28;20077;-68
2022/06/29 09:35:25;;;;;;;7.60;4.20;;;;;;;26.26;70.52;96528.75;4994546;28;20080;-68
2022/06/29 09:37:50;;;;;;;8.05;5.00;;;;;;;26.57;69.86;96531.19;5000064;28;20065;-69
2022/06/29 09:40:16;;;;;;;8.20;4.60;;;;;;;26.82;68.95;96529.97;4995923;28;21414;-67
2022/06/29 09:42:41;;;;;;;6.97;3.65;;;;;;;27.30;65.94;96536.75;5002541;28;20100;-67
2022/06/29 09:45:07;;;;;;;7.28;4.10;;;;;;;27.23;64.00;96527.44;4999768;28;20046;-69
2022/06/29 09:47:36;;;;;;;10.18;4.53;;;;;;;27.20;64.71;96533.25;5012585;28;20042;-68
2022/06/29 09:50:05;;;;;;;7.45;4.43;;;;;;;26.83;66.25;96531.53;5019637;28;20065;-69
2022/06/29 09:52:32;;;;;;;8.15;5.55;;;;;;;26.34;68.87;96529.94;4999282;28;20045;-67
2022/06/29 09:54:59;;;;;;;10.55;5.25;;;;;;;26.05;71.21;96530.53;5004934;28;20042;-68
2022/06/29 09:57:28;;;;;;;11.07;4.80;;;;;;;26.31;68.61;96533.72;4997067;28;20399;-66
2022/06/29 10:02:58;;;;;;;13.27;4.10;;;;;;;26.73;68.53;96520.84;4998479;28;20426;-70
2022/06/29 10:05:28;;;;;;;5.22;3.95;;;;;;;26.81;66.63;96516.38;4990013;28;20114;-69
2022/06/29 10:07:55;;;;;;;7.03;3.70;;;;;;;26.35;69.65;96519.50;5000562;28;20057;-69
2022/06/29 10:10:23;;;;;;;6.85;4.55;;;;;;;26.48;66.71;96517.22;5002359;28;20100;-67
2022/06/29 10:16:12;;;;;;;7.03;3.72;;;;;;;25.86;68.75;96519.38;5017289;28;20045;-68
2022/06/29 10:18:55;;;;;;;5.55;3.60;;;;;;;25.60;69.83;96518.97;5012223;28;20077;-69
2022/06/29 10:21:27;;;;;;;9.35;5.35;;;;;;;25.42;71.07;96511.41;4994376;28;20535;-69
2022/06/29 10:23:57;;;;;;;7.03;4.40;;;;;;;25.87;68.01;96520.91;4983096;28;20050;-67
2022/06/29 10:26:25;;;;;;;5.80;3.42;;;;;;;25.87;70.25;96512.50;5002851;28;20832;-69
2022/06/29 10:28:51;;;;;;;6.45;4.35;;;;;;;26.32;68.97;96509.97;5021171;28;20053;-69
2022/06/29 10:31:16;;;;;;;11.40;4.15;;;;;;;26.45;65.35;96512.56;5000985;28;20041;-68
2022/06/29 10:33:41;;;;;;;11.48;4.13;;;;;;;26.64;64.52;96504.81;4999661;28;20339;-68
2022/06/29 10:36:09;;;;;;;9.02;3.42;;;;;;;26.52;68.03;96506.56;5004145;28;20030;-70
2022/06/29 10:38:57;;;;;;;6.35;3.50;;;;;;;26.72;64.25;96502.41;5003422;28;20431;-68
2022/06/29 10:44:17;;;;;;;10.25;3.17;;;;;;;26.11;66.62;96495.00;4997180;28;20292;-71
2022/06/29 10:46:58;;;;;;;6.82;3.38;;;;;;;26.56;64.88;96498.78;4998227;28;20379;-70
2022/06/29 10:49:24;;;;;;;4.78;2.65;;;;;;;25.88;66.50;96491.63;4997644;28;20789;-70
2022/06/29 10:51:49;;;;;;;8.50;3.33;;;;;;;26.43;63.30;96486.97;5002449;28;20037;-69
2022/06/29 10:54:23;;;;;;;5.35;2.63;;;;;;;26.83;61.56;96491.41;4995239;28;20042;-69
2022/06/29 10:56:48;;;;;;;9.15;2.30;;;;;;;26.43;64.82;96484.94;5001331;28;20069;-69
2022/06/29 10:59:37;;;;;;;10.25;4.05;;;;;;;26.74;62.46;96492.28;4997015;28;20065;-70
2022/06/29 11:02:15;;;;;;;;;;;;;;;26.87;61.60;96484.34;4986671;28;20121;-73
2022/06/29 11:04:42;;;;;;;4.50;1.95;;;;;;;26.84;63.50;96485.28;4995684;28;20020;-70
2022/06/29 11:12:55;;;;;;;13.55;6.05;;;;;;;27.68;57.81;96473.25;5000340;28;20042;-68
2022/06/29 11:15:41;;;;;;;9.10;3.67;;;;;;;27.95;57.10;96470.13;4996304;28;20128;-68
2022/06/29 11:18:27;;;;;;;4.95;2.42;;;;;;;27.56;56.94;96472.31;4985899;28;20042;-70
2022/06/29 11:20:53;;;;;;;5.63;2.13;;;;;;;27.27;56.40;96474.63;4995551;28;20502;-68
2022/06/29 11:23:21;;;;;;;4.88;2.10;;;;;;;27.94;55.87;96471.38;4996652;28;20058;-69
2022/06/29 11:25:48;;;;;;;5.40;1.70;;;;;;;28.24;51.36;96471.31;5002159;28;20042;-67
2022/06/29 11:28:17;;;;;;;4.65;1.70;;;;;;;28.16;54.64;96473.78;5007254;28;20045;-69
2022/06/29 11:30:58;;;;;;;7.47;2.33;;;;;;;28.27;53.23;96463.91;5000842;28;20042;-69
2022/06/29 11:33:27;;;;;;;5.13;1.73;;;;;;;28.86;51.10;96458.00;4996339;28;20073;-70
2022/06/29 11:35:54;;;;;;;9.07;1.95;;;;;;;29.11;50.38;96461.34;4999816;28;20045;-69
2022/06/29 11:38:19;;;;;;;6.28;1.92;;;;;;;29.22;51.05;96452.25;4995659;28;20041;-70
2022/06/29 11:40:49;;;;;;;8.55;2.20;;;;;;;29.19;51.67;96465.31;5001360;28;20044;-68